Time;durP1;ratioP1;P1;durP2;ratioP2;P2;SDS_P1;SDS_P2;PMS_P1;PMS_P2;Temp;Humidity;BMP_temperature;BMP_pressure;BME280_temperature;BME280_humidity;BME280_pressure;Samples;Min_cycle;Max_cycle;Signal;HPM_P1;HPM_P2
2022/07/02 00:02:12;;;;;;;4.97;2.72;;;;;;;;;;4998738;28;20206;-62
2022/07/02 00:04:45;;;;;;;3.38;2.75;;;;;;;;;;5010599;28;20719;-62
2022/07/02 00:07:11;;;;;;;4.35;3.13;;;;;;;;;;4998808;28;20666;-62
2022/07/02 00:09:37;;;;;;;5.53;3.00;;;;;;;;;;5010970;28;20265;-62
2022/07/02 00:12:03;;;;;;;4.88;3.00;;;;;;;;;;5007071;28;20217;-62
2022/07/02 00:14:29;;;;;;;4.38;3.15;;;;;;;;;;5011398;28;20190;-64
2022/07/02 00:16:55;;;;;;;4.70;3.30;;;;;;;;;;5003099;28;20195;-63
2022/07/02 00:19:22;;;;;;;5.75;3.22;;;;;;;;;;5004629;28;20195;-63
2022/07/02 00:21:48;;;;;;;5.20;2.95;;;;;;;;;;5007047;28;20627;-63
2022/07/02 00:24:13;;;;;;;5.78;3.67;;;;;;;;;;5009939;28;20312;-63
2022/07/02 00:26:40;;;;;;;6.80;3.67;;;;;;;;;;5002237;28;20207;-63
2022/07/02 00:29:11;;;;;;;5.55;3.80;;;;;;;;;;5010303;28;20231;-63
2022/07/02 00:31:38;;;;;;;6.30;3.60;;;;;;;;;;5010038;28;20697;-63
2022/07/02 00:34:05;;;;;;;5.15;3.40;;;;;;;;;;5008444;28;20189;-63
2022/07/02 00:36:31;;;;;;;4.65;3.42;;;;;;;;;;5010055;28;20527;-64
2022/07/02 00:38:58;;;;;;;6.03;3.92;;;;;;;;;;5003473;28;20184;-63
2022/07/02 00:41:25;;;;;;;4.43;4.00;;;;;;;;;;4999605;28;20722;-63
2022/07/02 00:43:51;;;;;;;5.15;3.95;;;;;;;;;;5006096;28;20574;-63
2022/07/02 00:46:17;;;;;;;8.52;4.10;;;;;;;;;;4997052;28;20190;-63
2022/07/02 00:48:43;;;;;;;10.02;4.72;;;;;;;;;;4998019;28;20869;-63
2022/07/02 00:51:08;;;;;;;7.93;4.72;;;;;;;;;;4991571;28;20329;-63
2022/07/02 00:53:34;;;;;;;7.15;4.43;;;;;;;;;;4999132;28;20682;-63
2022/07/02 00:55:59;;;;;;;7.35;5.43;;;;;;;;;;5004351;28;20221;-63
2022/07/02 00:58:28;;;;;;;7.38;4.88;;;;;;;;;;5003879;28;20194;-63
2022/07/02 01:00:53;;;;;;;6.10;4.60;;;;;;;;;;5010548;28;20210;-62
2022/07/02 01:03:21;;;;;;;8.43;4.90;;;;;;;;;;5007595;28;20241;-63
2022/07/02 01:05:49;;;;;;;9.18;5.10;;;;;;;;;;5000260;28;20541;-62
2022/07/02 01:11:01;;;;;;;8.48;5.10;;;;;;;;;;4999379;28;20230;-63
2022/07/02 01:13:31;;;;;;;7.75;5.13;;;;;;;;;;5002252;28;20666;-61
2022/07/02 01:15:56;;;;;;;11.48;5.63;;;;;;;;;;5008478;28;20183;-64
2022/07/02 01:18:22;;;;;;;7.50;5.20;;;;;;;;;;5005171;28;20195;-63
2022/07/02 01:20:47;;;;;;;7.93;5.22;;;;;;;;;;5002034;28;20187;-61
2022/07/02 01:23:13;;;;;;;13.15;5.68;;;;;;;;;;5001089;28;20206;-62
2022/07/02 01:25:38;;;;;;;9.43;5.10;;;;;;;;;;5009056;28;20183;-63
2022/07/02 01:28:03;;;;;;;7.78;4.90;;;;;;;;;;5009997;28;20185;-62
2022/07/02 01:30:29;;;;;;;7.93;4.78;;;;;;;;;;5009593;28;20249;-62
2022/07/02 01:32:55;;;;;;;7.35;5.13;;;;;;;;;;5007358;28;20274;-62
2022/07/02 01:35:20;;;;;;;8.60;4.88;;;;;;;;;;5009328;28;20197;-62
2022/07/02 01:37:46;;;;;;;8.30;4.60;;;;;;;;;;5009020;28;20186;-62
2022/07/02 01:40:11;;;;;;;8.95;5.18;;;;;;;;;;5009699;28;20183;-62
2022/07/02 01:42:37;;;;;;;6.57;4.88;;;;;;;;;;4994482;28;20294;-62
2022/07/02 01:45:03;;;;;;;6.70;5.22;;;;;;;;;;5009672;28;20186;-62
2022/07/02 01:47:29;;;;;;;6.13;4.97;;;;;;;;;;5008821;28;20372;-63
2022/07/02 01:49:54;;;;;;;7.60;5.50;;;;;;;;;;5008219;28;20289;-62
2022/07/02 01:52:19;;;;;;;6.20;5.18;;;;;;;;;;5007707;28;20179;-62
2022/07/02 01:54:45;;;;;;;8.52;5.78;;;;;;;;;;5002292;28;20192;-62
2022/07/02 01:57:12;;;;;;;5.88;5.03;;;;;;;;;;5001068;28;20889;-62
2022/07/02 01:59:38;;;;;;;5.90;5.10;;;;;;;;;;5008707;28;20510;-62
2022/07/02 02:02:04;;;;;;;8.95;5.72;;;;;;;;;;5009654;28;20682;-62
2022/07/02 02:04:29;;;;;;;6.78;5.85;;;;;;;;;;5009590;28;20202;-63
2022/07/02 02:06:55;;;;;;;7.93;5.75;;;;;;;;;;5008734;28;20189;-62
2022/07/02 02:09:20;;;;;;;7.35;5.65;;;;;;;;;;5009161;28;20191;-62
2022/07/02 02:11:46;;;;;;;8.80;6.70;;;;;;;;;;5007456;28;20221;-62
2022/07/02 02:14:11;;;;;;;9.18;6.07;;;;;;;;;;5006635;28;20630;-62
2022/07/02 02:16:38;;;;;;;8.10;5.97;;;;;;;;;;5007850;28;20182;-62
2022/07/02 02:19:04;;;;;;;8.05;5.88;;;;;;;;;;5002204;28;20183;-63
2022/07/02 02:21:29;;;;;;;7.47;6.00;;;;;;;;;;5004927;28;20242;-62
2022/07/02 02:23:56;;;;;;;7.78;6.28;;;;;;;;;;5007314;28;20210;-63
2022/07/02 02:26:22;;;;;;;7.35;6.15;;;;;;;;;;5000185;28;20176;-62
2022/07/02 02:28:47;;;;;;;10.43;7.32;;;;;;;;;;5008364;28;20276;-63
2022/07/02 02:31:13;;;;;;;11.63;7.18;;;;;;;;;;5008509;28;20203;-63
2022/07/02 02:33:39;;;;;;;10.95;7.63;;;;;;;;;;4999498;28;20636;-63
2022/07/02 02:36:05;;;;;;;11.02;7.60;;;;;;;;;;5009149;28;20182;-63
2022/07/02 02:38:30;;;;;;;8.52;7.22;;;;;;;;;;5008517;28;20194;-63
2022/07/02 02:40:56;;;;;;;13.68;7.82;;;;;;;;;;5000118;28;20187;-62
2022/07/02 02:43:21;;;;;;;12.63;7.15;;;;;;;;;;5001874;28;20629;-62
2022/07/02 02:45:48;;;;;;;12.55;8.63;;;;;;;;;;4997170;28;20198;-62
2022/07/02 02:48:17;;;;;;;11.38;7.55;;;;;;;;;;5008547;28;20189;-62
2022/07/02 02:50:42;;;;;;;10.15;7.18;;;;;;;;;;5007677;28;20194;-62
2022/07/02 02:53:07;;;;;;;8.48;7.38;;;;;;;;;;5007732;28;20690;-62
2022/07/02 02:55:33;;;;;;;13.40;8.23;;;;;;;;;;4995644;28;20237;-62
2022/07/02 02:57:58;;;;;;;10.60;8.23;;;;;;;;;;4992757;28;20190;-62
2022/07/02 03:00:23;;;;;;;10.35;9.07;;;;;;;;;;5008613;28;20742;-62
2022/07/02 03:02:49;;;;;;;13.30;9.68;;;;;;;;;;5006191;28;20198;-63
2022/07/02 03:05:14;;;;;;;13.45;10.35;;;;;;;;;;5007640;28;20541;-63
2022/07/02 03:07:40;;;;;;;12.52;10.65;;;;;;;;;;5007083;28;20673;-62
2022/07/02 03:10:06;;;;;;;12.40;10.85;;;;;;;;;;4994859;28;20366;-63
2022/07/02 03:12:31;;;;;;;14.70;10.88;;;;;;;;;;5000851;28;20700;-63
2022/07/02 03:14:57;;;;;;;15.90;10.82;;;;;;;;;;5003950;28;20186;-63
2022/07/02 03:17:22;;;;;;;12.98;10.60;;;;;;;;;;5015173;28;20616;-63
2022/07/02 03:19:47;;;;;;;12.75;11.27;;;;;;;;;;5009878;28;20294;-63
2022/07/02 03:22:13;;;;;;;16.45;12.25;;;;;;;;;;5012688;28;20210;-63
2022/07/02 03:24:38;;;;;;;18.10;14.15;;;;;;;;;;5007157;28;20217;-62
2022/07/02 03:27:04;;;;;;;17.63;13.18;;;;;;;;;;5011399;28;20183;-62
2022/07/02 03:29:29;;;;;;;20.35;13.90;;;;;;;;;;5009435;28;20702;-62
2022/07/02 03:31:54;;;;;;;19.25;12.13;;;;;;;;;;5007813;28;20332;-62
2022/07/02 03:34:20;;;;;;;17.73;11.50;;;;;;;;;;5013647;28;20182;-62
2022/07/02 03:36:45;;;;;;;15.25;9.75;;;;;;;;;;5011266;28;20183;-64
2022/07/02 03:39:10;;;;;;;15.48;11.68;;;;;;;;;;5011896;28;20205;-61
2022/07/02 03:41:36;;;;;;;15.20;12.45;;;;;;;;;;5029073;28;20340;-62
2022/07/02 03:44:01;;;;;;;19.23;12.68;;;;;;;;;;5006504;28;20218;-62
2022/07/02 03:46:26;;;;;;;14.85;11.50;;;;;;;;;;5011698;28;20179;-62
2022/07/02 03:48:52;;;;;;;13.25;10.98;;;;;;;;;;5009833;28;20190;-62
2022/07/02 03:51:17;;;;;;;12.60;10.00;;;;;;;;;;5002403;28;20186;-62
2022/07/02 03:53:42;;;;;;;14.38;10.88;;;;;;;;;;5038031;28;20190;-62
2022/07/02 03:56:08;;;;;;;17.35;11.95;;;;;;;;;;5017623;28;20191;-62
2022/07/02 03:58:33;;;;;;;15.70;11.70;;;;;;;;;;5007793;28;20187;-62
2022/07/02 04:00:59;;;;;;;17.02;12.38;;;;;;;;;;5014962;28;20183;-62
2022/07/02 04:03:24;;;;;;;14.02;11.98;;;;;;;;;;5005942;28;20249;-62
2022/07/02 04:05:50;;;;;;;17.08;10.13;;;;;;;;;;5006642;28;20265;-62
2022/07/02 04:08:15;;;;;;;14.35;11.15;;;;;;;;;;5013667;28;20641;-62
2022/07/02 04:10:40;;;;;;;12.98;9.43;;;;;;;;;;5004593;28;20259;-61
2022/07/02 04:13:07;;;;;;;11.98;9.38;;;;;;;;;;5003667;28;20237;-62
2022/07/02 04:15:33;;;;;;;11.30;9.43;;;;;;;;;;4997675;28;20198;-62
2022/07/02 04:17:58;;;;;;;17.38;9.50;;;;;;;;;;5006645;28;20183;-61
2022/07/02 04:20:23;;;;;;;14.68;9.50;;;;;;;;;;4998458;28;20641;-62
2022/07/02 04:22:49;;;;;;;14.35;8.77;;;;;;;;;;4993896;28;20722;-61
2022/07/02 04:25:14;;;;;;;12.57;9.40;;;;;;;;;;5006541;28;20190;-62
2022/07/02 04:27:39;;;;;;;16.05;9.88;;;;;;;;;;5006806;28;20187;-62
2022/07/02 04:30:05;;;;;;;12.15;9.38;;;;;;;;;;5005089;28;20231;-62
2022/07/02 04:32:31;;;;;;;13.43;7.95;;;;;;;;;;5007130;28;20663;-62
2022/07/02 04:34:56;;;;;;;11.23;8.68;;;;;;;;;;4998709;28;20183;-62
2022/07/02 04:37:22;;;;;;;12.63;8.05;;;;;;;;;;5010368;28;20210;-63
2022/07/02 04:39:47;;;;;;;6.78;6.05;;;;;;;;;;5010172;28;20241;-62
2022/07/02 04:42:12;;;;;;;10.30;6.68;;;;;;;;;;5010563;28;20286;-63
2022/07/02 04:44:38;;;;;;;10.07;5.72;;;;;;;;;;5001491;28;20179;-63
2022/07/02 04:47:03;;;;;;;20.25;5.93;;;;;;;;;;5012355;28;20186;-63
2022/07/02 04:49:32;;;;;;;6.30;4.55;;;;;;;;;;5009900;28;20300;-63
2022/07/02 04:51:57;;;;;;;8.40;5.43;;;;;;;;;;5007808;28;20646;-63
2022/07/02 04:54:22;;;;;;;7.50;5.45;;;;;;;;;;5008754;28;20182;-63
2022/07/02 04:56:48;;;;;;;8.65;4.82;;;;;;;;;;5008744;28;20229;-63
2022/07/02 04:59:14;;;;;;;8.38;4.47;;;;;;;;;;5013717;28;20187;-63
2022/07/02 05:01:39;;;;;;;10.13;5.40;;;;;;;;;;5010143;28;20399;-63
2022/07/02 05:04:04;;;;;;;8.50;5.38;;;;;;;;;;5009374;28;20221;-63
2022/07/02 05:06:30;;;;;;;5.97;4.07;;;;;;;;;;5000409;28;20236;-63
2022/07/02 05:08:55;;;;;;;9.00;4.28;;;;;;;;;;5008398;28;20186;-63
2022/07/02 05:11:20;;;;;;;5.15;4.47;;;;;;;;;;5008447;28;20237;-63
2022/07/02 05:13:47;;;;;;;8.32;4.82;;;;;;;;;;5014435;28;20182;-63
2022/07/02 05:16:12;;;;;;;8.63;4.60;;;;;;;;;;5010051;28;20265;-63
2022/07/02 05:18:38;;;;;;;10.02;5.22;;;;;;;;;;5006876;28;20272;-63
2022/07/02 05:21:04;;;;;;;11.27;5.72;;;;;;;;;;5009129;28;20517;-64
2022/07/02 05:23:29;;;;;;;7.97;5.50;;;;;;;;;;5006703;28;20202;-62
2022/07/02 05:25:54;;;;;;;7.82;4.93;;;;;;;;;;5003299;28;20190;-62
2022/07/02 05:28:20;;;;;;;8.48;5.53;;;;;;;;;;5006823;28;20182;-63
2022/07/02 05:30:45;;;;;;;13.35;5.70;;;;;;;;;;5006575;28;20234;-63
2022/07/02 05:33:10;;;;;;;8.43;5.22;;;;;;;;;;5007412;28;20577;-63
2022/07/02 05:35:36;;;;;;;10.13;4.65;;;;;;;;;;5005499;28;20240;-62
2022/07/02 05:38:01;;;;;;;9.60;4.70;;;;;;;;;;5010587;28;20698;-63
2022/07/02 05:40:27;;;;;;;7.30;4.40;;;;;;;;;;5003080;28;20179;-63
2022/07/02 05:42:52;;;;;;;8.93;4.05;;;;;;;;;;5009044;28;20571;-62
2022/07/02 05:45:17;;;;;;;8.27;4.30;;;;;;;;;;5004907;28;20189;-64
2022/07/02 05:47:43;;;;;;;5.35;3.95;;;;;;;;;;5005152;28;20179;-63
2022/07/02 05:50:09;;;;;;;8.05;3.88;;;;;;;;;;5006846;28;20182;-63
2022/07/02 05:52:34;;;;;;;6.78;4.05;;;;;;;;;;5009589;28;20182;-62
2022/07/02 05:55:00;;;;;;;7.00;4.30;;;;;;;;;;5008530;28;20195;-63
2022/07/02 05:57:25;;;;;;;7.00;4.18;;;;;;;;;;5006405;28;20175;-63
2022/07/02 05:59:50;;;;;;;8.48;4.03;;;;;;;;;;5003880;28;20190;-63
2022/07/02 06:02:16;;;;;;;7.80;4.22;;;;;;;;;;5007512;28;20207;-63
2022/07/02 06:04:41;;;;;;;5.28;3.60;;;;;;;;;;5005589;28;20182;-63
2022/07/02 06:09:50;;;;;;;8.05;3.88;;;;;;;;;;5010713;28;20237;-63
2022/07/02 06:12:16;;;;;;;6.53;3.38;;;;;;;;;;5003470;28;20187;-63
2022/07/02 06:14:41;;;;;;;5.35;3.80;;;;;;;;;;5008126;28;20221;-63
2022/07/02 06:17:06;;;;;;;7.60;3.40;;;;;;;;;;5006260;28;20198;-63
2022/07/02 06:19:32;;;;;;;6.90;3.30;;;;;;;;;;5006811;28;20245;-63
2022/07/02 06:21:57;;;;;;;5.65;3.75;;;;;;;;;;5007662;28;20414;-63
2022/07/02 06:24:22;;;;;;;6.00;2.78;;;;;;;;;;5006668;28;20195;-63
2022/07/02 06:26:48;;;;;;;4.22;3.00;;;;;;;;;;5007094;28;20179;-63
2022/07/02 06:29:13;;;;;;;10.90;3.42;;;;;;;;;;5005296;28;20249;-63
2022/07/02 06:31:38;;;;;;;5.00;2.75;;;;;;;;;;4312365;28;10000716;-63
2022/07/02 06:34:04;;;;;;;4.88;2.83;;;;;;;;;;5003657;28;20182;-63
2022/07/02 06:36:30;;;;;;;3.25;2.35;;;;;;;;;;5004155;28;20530;-64
2022/07/02 06:38:55;;;;;;;4.97;2.83;;;;;;;;;;5003393;28;20198;-64
2022/07/02 06:44:07;;;;;;;8.30;3.00;;;;;;;;;;5003237;28;20413;-64
2022/07/02 06:46:33;;;;;;;6.35;3.33;;;;;;;;;;5002562;28;20314;-64
2022/07/02 06:48:59;;;;;;;4.25;3.08;;;;;;;;;;5003726;28;20690;-63
2022/07/02 06:51:24;;;;;;;9.35;3.10;;;;;;;;;;5004412;28;20201;-62
2022/07/02 06:53:50;;;;;;;4.43;2.65;;;;;;;;;;5002616;28;20189;-63
2022/07/02 06:56:16;;;;;;;7.55;3.15;;;;;;;;;;5001845;28;20182;-62
2022/07/02 06:58:41;;;;;;;6.43;3.20;;;;;;;;;;5003642;28;20197;-61
2022/07/02 07:01:06;;;;;;;6.03;3.30;;;;;;;;;;5001442;28;20189;-65
2022/07/02 07:03:32;;;;;;;8.00;2.80;;;;;;;;;;5006846;28;20233;-62
2022/07/02 07:05:57;;;;;;;4.20;2.45;;;;;;;;;;5002735;28;20187;-62
2022/07/02 07:08:22;;;;;;;5.40;2.60;;;;;;;;;;5001662;28;20194;-63
2022/07/02 07:10:47;;;;;;;8.93;2.05;;;;;;;;;;4999637;28;20184;-63
2022/07/02 07:13:13;;;;;;;4.70;1.92;;;;;;;;;;5000456;28;20175;-63
2022/07/02 07:15:38;;;;;;;3.88;1.88;;;;;;;;;;5003864;28;20222;-62
2022/07/02 07:18:03;;;;;;;4.15;2.38;;;;;;;;;;4993937;28;20186;-63
2022/07/02 07:20:31;;;;;;;5.30;2.25;;;;;;;;;;5005122;28;20183;-63
2022/07/02 07:22:56;;;;;;;7.80;2.05;;;;;;;;;;5008090;28;20252;-65
2022/07/02 07:25:22;;;;;;;2.83;1.73;;;;;;;;;;5008057;28;20564;-66
2022/07/02 07:27:48;;;;;;;5.75;2.05;;;;;;;;;;5005440;28;20190;-63
2022/07/02 07:30:14;;;;;;;4.22;1.58;;;;;;;;;;5002392;28;20591;-63
2022/07/02 07:32:40;;;;;;;3.83;1.58;;;;;;;;;;5015878;28;20518;-63
2022/07/02 07:35:05;;;;;;;2.35;1.02;;;;;;;;;;5006622;28;20187;-63
2022/07/02 07:37:31;;;;;;;2.28;1.10;;;;;;;;;;5006424;28;20261;-68
2022/07/02 07:39:56;;;;;;;2.60;1.08;;;;;;;;;;5004537;28;20190;-63
2022/07/02 07:42:27;;;;;;;2.25;1.30;;;;;;;;;;5004563;28;20205;-63
2022/07/02 07:44:52;;;;;;;4.00;1.13;;;;;;;;;;5006708;28;20673;-63
2022/07/02 07:47:20;;;;;;;2.10;1.13;;;;;;;;;;5006368;28;20187;-63
2022/07/02 07:49:46;;;;;;;4.13;1.10;;;;;;;;;;5006963;28;20554;-64
2022/07/02 07:52:11;;;;;;;2.95;1.00;;;;;;;;;;5004391;28;20182;-62
2022/07/02 07:54:37;;;;;;;3.45;1.00;;;;;;;;;;5006572;28;20258;-66
2022/07/02 07:57:03;;;;;;;3.05;1.10;;;;;;;;;;5001121;28;20214;-63
2022/07/02 07:59:31;;;;;;;3.78;0.90;;;;;;;;;;5002658;28;20179;-65
2022/07/02 08:01:56;;;;;;;4.38;1.10;;;;;;;;;;5004281;28;20705;-63
2022/07/02 08:04:22;;;;;;;3.60;0.73;;;;;;;;;;5006117;28;20203;-62
2022/07/02 08:06:47;;;;;;;1.42;0.73;;;;;;;;;;5005238;28;20202;-63
2022/07/02 08:09:13;;;;;;;3.00;0.88;;;;;;;;;;5005987;28;20179;-66
2022/07/02 08:11:38;;;;;;;2.17;1.00;;;;;;;;;;5007746;28;20710;-63
2022/07/02 08:14:04;;;;;;;2.38;0.70;;;;;;;;;;5007614;28;20182;-63
2022/07/02 08:16:30;;;;;;;1.35;0.60;;;;;;;;;;5007378;28;20256;-63
2022/07/02 08:18:56;;;;;;;2.88;0.50;;;;;;;;;;5008938;28;20575;-63
2022/07/02 08:21:22;;;;;;;1.98;0.80;;;;;;;;;;5007994;28;20256;-64
2022/07/02 08:23:47;;;;;;;3.72;0.47;;;;;;;;;;5006981;28;20298;-65
2022/07/02 08:26:12;;;;;;;2.58;1.00;;;;;;;;;;5007872;28;20529;-63
2022/07/02 08:28:38;;;;;;;3.45;0.77;;;;;;;;;;5007297;28;20342;-63
2022/07/02 08:31:03;;;;;;;2.13;0.70;;;;;;;;;;5008156;28;20199;-64
2022/07/02 08:33:29;;;;;;;2.58;0.80;;;;;;;;;;5004596;28;20211;-65
2022/07/02 08:35:54;;;;;;;1.95;0.80;;;;;;;;;;5003199;28;20178;-64
2022/07/02 08:38:19;;;;;;;3.92;1.00;;;;;;;;;;5004899;28;20191;-66
2022/07/02 08:40:45;;;;;;;2.28;0.90;;;;;;;;;;5006186;28;20819;-63
2022/07/02 08:43:12;;;;;;;2.90;0.90;;;;;;;;;;5007007;28;20203;-62
2022/07/02 08:45:40;;;;;;;3.55;0.80;;;;;;;;;;5004394;28;20213;-63
2022/07/02 08:48:07;;;;;;;3.00;0.90;;;;;;;;;;5003948;28;20563;-63
2022/07/02 08:50:33;;;;;;;3.40;0.73;;;;;;;;;;5008063;28;20187;-65
2022/07/02 08:52:59;;;;;;;1.83;0.70;;;;;;;;;;5007758;28;20233;-64
2022/07/02 08:55:26;;;;;;;5.47;0.90;;;;;;;;;;5007396;28;20202;-64
2022/07/02 08:57:51;;;;;;;2.72;0.77;;;;;;;;;;5003638;28;20533;-65
2022/07/02 09:00:20;;;;;;;3.85;0.80;;;;;;;;;;5008472;28;20248;-63
2022/07/02 09:02:49;;;;;;;2.70;0.73;;;;;;;;;;5005572;28;20543;-65
2022/07/02 09:05:17;;;;;;;2.50;1.08;;;;;;;;;;5004702;28;20194;-63
2022/07/02 09:07:44;;;;;;;7.10;0.80;;;;;;;;;;5001920;28;20186;-63
2022/07/02 09:10:10;;;;;;;4.22;1.10;;;;;;;;;;5002893;28;20187;-63
2022/07/02 09:12:37;;;;;;;3.75;0.90;;;;;;;;;;5006075;28;20186;-64
2022/07/02 09:15:02;;;;;;;3.65;0.82;;;;;;;;;;5005208;28;20183;-63
2022/07/02 09:17:28;;;;;;;5.18;0.90;;;;;;;;;;5003936;28;20252;-65
2022/07/02 09:19:53;;;;;;;4.43;1.23;;;;;;;;;;5005057;28;20188;-63
2022/07/02 09:22:30;;;;;;;2.25;0.90;;;;;;;;;;5005398;28;20293;-64
2022/07/02 09:24:56;;;;;;;9.77;1.23;;;;;;;;;;5008264;28;20171;-65
2022/07/02 09:27:21;;;;;;;3.67;1.00;;;;;;;;;;5000368;28;20558;-63
2022/07/02 09:29:52;;;;;;;2.05;0.90;;;;;;;;;;4993608;28;20575;-66
2022/07/02 09:32:19;;;;;;;5.03;1.40;;;;;;;;;;5009469;28;20238;-63
2022/07/02 09:34:50;;;;;;;2.58;0.70;;;;;;;;;;5000776;28;20214;-63
2022/07/02 09:37:21;;;;;;;2.85;0.90;;;;;;;;;;5027884;28;20183;-65
2022/07/02 09:39:49;;;;;;;3.50;1.13;;;;;;;;;;5008693;28;20600;-62
2022/07/02 09:42:25;;;;;;;5.07;1.00;;;;;;;;;;5007090;28;20676;-66
2022/07/02 09:44:51;;;;;;;5.93;0.93;;;;;;;;;;5002426;28;20241;-62
2022/07/02 09:47:16;;;;;;;3.95;0.82;;;;;;;;;;5001672;28;20191;-62
2022/07/02 09:49:48;;;;;;;2.90;0.90;;;;;;;;;;5005623;28;20206;-66
2022/07/02 09:52:17;;;;;;;2.65;0.77;;;;;;;;;;5005009;28;20531;-61
2022/07/02 09:54:44;;;;;;;3.63;1.17;;;;;;;;;;5007092;28;20178;-62
2022/07/02 09:57:11;;;;;;;5.90;1.25;;;;;;;;;;5004807;28;20175;-62
2022/07/02 09:59:38;;;;;;;4.07;1.17;;;;;;;;;;5007508;28;20190;-63
2022/07/02 10:02:04;;;;;;;3.40;0.85;;;;;;;;;;5005260;28;20182;-62
2022/07/02 10:04:33;;;;;;;3.20;0.98;;;;;;;;;;5006279;28;20201;-62
2022/07/02 10:06:59;;;;;;;3.08;1.00;;;;;;;;;;5005347;28;20187;-66
2022/07/02 10:09:26;;;;;;;3.80;1.45;;;;;;;;;;5003036;28;20186;-62
2022/07/02 10:11:53;;;;;;;1.92;0.70;;;;;;;;;;5005043;28;20698;-62
2022/07/02 10:14:21;;;;;;;3.45;0.60;;;;;;;;;;5002758;28;20186;-63
2022/07/02 10:16:50;;;;;;;3.05;0.80;;;;;;;;;;5001203;28;20190;-65
2022/07/02 10:19:17;;;;;;;2.58;0.95;;;;;;;;;;5006184;28;20195;-62
2022/07/02 10:21:43;;;;;;;3.88;0.80;;;;;;;;;;5005730;28;20193;-63
2022/07/02 10:24:10;;;;;;;3.78;0.70;;;;;;;;;;5005943;28;20199;-66
2022/07/02 10:26:36;;;;;;;1.60;0.70;;;;;;;;;;5005930;28;20187;-66
2022/07/02 10:29:03;;;;;;;1.60;0.73;;;;;;;;;;5006003;28;20296;-62
2022/07/02 10:31:44;;;;;;;2.78;0.68;;;;;;;;;;5006756;28;20207;-62
2022/07/02 10:34:45;;;;;;;3.55;0.88;;;;;;;;;;4995322;28;20230;-63
2022/07/02 10:37:11;;;;;;;2.53;0.70;;;;;;;;;;4998814;28;20179;-65
2022/07/02 10:39:42;;;;;;;2.40;1.00;;;;;;;;;;5006188;28;20269;-63
2022/07/02 10:42:08;;;;;;;4.22;0.80;;;;;;;;;;5002801;28;20194;-62
2022/07/02 10:44:42;;;;;;;2.75;0.88;;;;;;;;;;5001069;28;20258;-61
2022/07/02 10:47:26;;;;;;;3.08;0.50;;;;;;;;;;5003742;28;20626;-64
2022/07/02 10:50:01;;;;;;;9.23;1.20;;;;;;;;;;5005162;28;20290;-61
2022/07/02 10:52:49;;;;;;;1.80;0.63;;;;;;;;;;5002709;28;20198;-62
2022/07/02 10:55:25;;;;;;;3.92;0.77;;;;;;;;;;5003035;28;21428;-62
2022/07/02 10:57:58;;;;;;;4.50;0.95;;;;;;;;;;5002630;28;20629;-62
2022/07/02 11:00:35;;;;;;;4.47;1.00;;;;;;;;;;4999624;28;20183;-61
2022/07/02 11:03:19;;;;;;;2.92;0.80;;;;;;;;;;5001414;28;20709;-61
2022/07/02 11:06:06;;;;;;;4.63;0.75;;;;;;;;;;5004266;28;20187;-62
2022/07/02 11:08:44;;;;;;;3.75;0.95;;;;;;;;;;5001392;28;20561;-62
2022/07/02 11:11:11;;;;;;;3.45;0.60;;;;;;;;;;5002607;28;20525;-62
2022/07/02 11:13:54;;;;;;;2.80;0.80;;;;;;;;;;4999658;28;20689;-62
2022/07/02 11:16:23;;;;;;;1.80;0.68;;;;;;;;;;5003036;28;20182;-62
2022/07/02 11:18:50;;;;;;;2.90;0.65;;;;;;;;;;4998486;28;20195;-63
2022/07/02 11:21:16;;;;;;;1.65;0.50;;;;;;;;;;4998442;28;20238;-62
2022/07/02 11:23:42;;;;;;;2.25;0.70;;;;;;;;;;4999847;28;20253;-62
2022/07/02 11:26:07;;;;;;;3.55;0.70;;;;;;;;;;4998589;28;20895;-62
2022/07/02 11:28:34;;;;;;;3.83;0.45;;;;;;;;;;4998217;28;20190;-63
2022/07/02 11:31:02;;;;;;;3.30;0.65;;;;;;;;;;4996644;28;20207;-62
2022/07/02 11:33:35;;;;;;;2.71;0.66;;;;;;;;;;4576956;28;10002886;-62
2022/07/02 11:36:00;;;;;;;3.83;0.70;;;;;;;;;;4995290;28;20210;-63
2022/07/02 11:38:26;;;;;;;1.65;0.60;;;;;;;;;;4989529;28;20187;-62
2022/07/02 11:40:52;;;;;;;2.70;1.27;;;;;;;;;;5007386;28;20217;-63
2022/07/02 11:43:18;;;;;;;2.97;0.60;;;;;;;;;;5000894;28;20242;-63
2022/07/02 11:45:48;;;;;;;0.73;0.40;;;;;;;;;;4998443;28;20509;-62
2022/07/02 11:48:21;;;;;;;3.00;0.60;;;;;;;;;;5000014;28;20745;-63
2022/07/02 11:50:57;;;;;;;1.50;0.50;;;;;;;;;;4999701;28;20472;-64
2022/07/02 11:53:23;;;;;;;2.53;0.57;;;;;;;;;;5000186;28;20216;-65
2022/07/02 11:55:49;;;;;;;2.50;0.50;;;;;;;;;;5002271;28;20190;-62
2022/07/02 11:58:15;;;;;;;1.85;0.50;;;;;;;;;;4998787;28;20186;-63
2022/07/02 12:00:40;;;;;;;3.58;0.47;;;;;;;;;;5004321;28;20193;-64
2022/07/02 12:03:10;;;;;;;2.08;0.70;;;;;;;;;;4997682;28;20282;-63
2022/07/02 12:05:36;;;;;;;1.83;0.98;;;;;;;;;;5003512;28;20195;-63
2022/07/02 12:08:04;;;;;;;2.35;0.70;;;;;;;;;;4999412;28;20902;-65
2022/07/02 12:10:39;;;;;;;2.58;0.60;;;;;;;;;;5002793;28;20214;-63
2022/07/02 12:13:11;;;;;;;5.25;0.88;;;;;;;;;;5001498;28;20206;-63
2022/07/02 12:15:44;;;;;;;1.75;0.55;;;;;;;;;;5001346;28;20214;-63
2022/07/02 12:18:21;;;;;;;5.93;0.77;;;;;;;;;;5001163;28;20332;-66
2022/07/02 12:20:47;;;;;;;2.78;0.70;;;;;;;;;;5002575;28;20190;-63
2022/07/02 12:23:13;;;;;;;1.55;0.50;;;;;;;;;;4997485;28;20207;-63
2022/07/02 12:25:46;;;;;;;2.00;0.50;;;;;;;;;;5005273;28;20214;-63
2022/07/02 12:30:56;;;;;;;1.30;0.68;;;;;;;;;;4996270;28;20646;-63
2022/07/02 12:33:35;;;;;;;2.42;0.60;;;;;;;;;;4999149;28;20461;-64
2022/07/02 12:36:04;;;;;;;1.80;0.60;;;;;;;;;;4999137;28;20572;-62
2022/07/02 12:38:44;;;;;;;2.22;0.98;;;;;;;;;;5000150;28;20182;-64
2022/07/02 12:41:10;;;;;;;1.70;0.60;;;;;;;;;;5001809;28;20692;-62
2022/07/02 12:43:36;;;;;;;1.58;0.45;;;;;;;;;;4999237;28;21195;-63
2022/07/02 12:46:07;;;;;;;1.05;0.65;;;;;;;;;;4996192;28;20186;-63
2022/07/02 12:48:43;;;;;;;0.88;0.60;;;;;;;;;;5000705;28;20194;-63
2022/07/02 12:51:10;;;;;;;3.75;0.60;;;;;;;;;;4997512;28;20246;-64
2022/07/02 12:53:36;;;;;;;2.05;0.73;;;;;;;;;;4998366;28;20182;-62
2022/07/02 12:56:03;;;;;;;2.03;0.57;;;;;;;;;;4996291;28;20203;-62
2022/07/02 12:58:29;;;;;;;1.40;0.60;;;;;;;;;;4997803;28;20218;-62
2022/07/02 13:00:55;;;;;;;2.17;0.60;;;;;;;;;;4998061;28;20666;-63
2022/07/02 13:03:22;;;;;;;3.97;0.80;;;;;;;;;;5000030;28;20326;-63
2022/07/02 13:05:49;;;;;;;2.05;0.60;;;;;;;;;;5001840;28;20670;-63
2022/07/02 13:08:16;;;;;;;1.75;0.80;;;;;;;;;;5002587;28;20371;-62
2022/07/02 13:10:43;;;;;;;1.38;0.43;;;;;;;;;;5002106;28;20218;-62
2022/07/02 13:13:09;;;;;;;1.38;0.60;;;;;;;;;;5003984;28;20183;-65
2022/07/02 13:15:34;;;;;;;1.13;0.60;;;;;;;;;;4997821;28;20210;-61
2022/07/02 13:18:00;;;;;;;3.08;0.40;;;;;;;;;;5003688;28;20189;-61
2022/07/02 13:20:26;;;;;;;1.48;0.80;;;;;;;;;;5007315;28;20325;-63
2022/07/02 13:22:51;;;;;;;1.85;0.55;;;;;;;;;;5005729;28;20202;-62
2022/07/02 13:25:17;;;;;;;0.68;0.40;;;;;;;;;;4659089;28;9999765;-61
2022/07/02 13:27:43;;;;;;;0.75;0.40;;;;;;;;;;5000760;28;20198;-62
2022/07/02 13:30:14;;;;;;;1.27;0.50;;;;;;;;;;4991964;28;20234;-62
2022/07/02 13:32:39;;;;;;;3.92;0.80;;;;;;;;;;5002492;28;20211;-62
2022/07/02 13:35:08;;;;;;;2.10;0.45;;;;;;;;;;5000739;28;20236;-61
2022/07/02 13:37:34;;;;;;;4.43;0.70;;;;;;;;;;4997309;28;20183;-65
2022/07/02 13:39:59;;;;;;;3.38;0.70;;;;;;;;;;5004207;28;20186;-62
2022/07/02 13:42:25;;;;;;;3.90;0.70;;;;;;;;;;5002180;28;20211;-63
2022/07/02 13:44:50;;;;;;;1.98;0.52;;;;;;;;;;5002914;28;20527;-62
2022/07/02 13:47:16;;;;;;;3.72;0.65;;;;;;;;;;5004423;28;20183;-62
2022/07/02 13:49:42;;;;;;;2.50;0.65;;;;;;;;;;5001819;28;20171;-62
2022/07/02 13:52:07;;;;;;;1.40;0.60;;;;;;;;;;5006430;28;20202;-61
2022/07/02 13:54:33;;;;;;;2.53;0.60;;;;;;;;;;5002676;28;20219;-63
2022/07/02 13:56:59;;;;;;;5.47;0.60;;;;;;;;;;5003606;28;20206;-63
2022/07/02 13:59:25;;;;;;;1.83;0.45;;;;;;;;;;4995151;28;20184;-63
2022/07/02 14:01:50;;;;;;;3.63;0.63;;;;;;;;;;4998163;28;20240;-63
2022/07/02 14:04:15;;;;;;;2.58;0.50;;;;;;;;;;5007149;28;20198;-62
2022/07/02 14:06:41;;;;;;;1.90;0.60;;;;;;;;;;4999082;28;20183;-62
2022/07/02 14:09:06;;;;;;;3.33;0.50;;;;;;;;;;5007955;28;20217;-61
2022/07/02 14:11:32;;;;;;;2.67;0.50;;;;;;;;;;5007731;28;20205;-62
2022/07/02 14:13:57;;;;;;;1.80;0.80;;;;;;;;;;5007235;28;20535;-62
2022/07/02 14:16:23;;;;;;;1.98;0.60;;;;;;;;;;5005511;28;20182;-62
2022/07/02 14:18:48;;;;;;;1.20;0.60;;;;;;;;;;5004838;28;20273;-62
2022/07/02 14:21:14;;;;;;;1.83;0.60;;;;;;;;;;5004749;28;20187;-62
2022/07/02 14:23:39;;;;;;;0.77;0.40;;;;;;;;;;5006185;28;20210;-64
2022/07/02 14:26:05;;;;;;;2.55;0.70;;;;;;;;;;5003551;28;20242;-63
2022/07/02 14:28:37;;;;;;;1.17;0.65;;;;;;;;;;5048402;28;21099;-61
2022/07/02 14:31:02;;;;;;;2.00;0.90;;;;;;;;;;5051429;28;21688;-62
2022/07/02 14:33:28;;;;;;;2.17;0.70;;;;;;;;;;5042928;28;20278;-61
2022/07/02 14:35:55;;;;;;;0.60;0.60;;;;;;;;;;5063242;28;20172;-60
2022/07/02 14:38:20;;;;;;;1.98;0.90;;;;;;;;;;5058132;28;20173;-63
2022/07/02 14:40:47;;;;;;;1.92;1.00;;;;;;;;;;5032646;28;20235;-60
2022/07/02 14:43:12;;;;;;;2.97;0.50;;;;;;;;;;5050909;28;20648;-60
2022/07/02 14:45:38;;;;;;;1.98;0.63;;;;;;;;;;5055079;28;20188;-60
2022/07/02 14:48:04;;;;;;;2.80;0.60;;;;;;;;;;5054868;28;20806;-61